sensor_id;sensor_type;location;lat;lon;timestamp;pressure;altitude;pressure_sealevel;temperature;humidity
55990;BME280;41875;55.806;38.082;2023-05-02T00:01:11;99813.69;;;4.53;63.25
55990;BME280;41875;55.806;38.082;2023-05-02T00:03:40;99820.50;;;4.56;63.35
55990;BME280;41875;55.806;38.082;2023-05-02T00:06:09;99820.84;;;4.87;62.47
55990;BME280;41875;55.806;38.082;2023-05-02T00:08:40;99824.03;;;4.79;62.14
55990;BME280;41875;55.806;38.082;2023-05-02T00:11:09;99832.41;;;4.84;62.26
55990;BME280;41875;55.806;38.082;2023-05-02T00:13:40;99838.03;;;4.80;62.53
55990;BME280;41875;55.806;38.082;2023-05-02T00:16:10;99839.34;;;4.85;62.03
55990;BME280;41875;55.806;38.082;2023-05-02T00:18:38;99843.38;;;4.78;62.25
55990;BME280;41875;55.806;38.082;2023-05-02T00:21:06;99843.16;;;4.81;62.24
55990;BME280;41875;55.806;38.082;2023-05-02T00:23:35;99851.00;;;4.81;62.38
55990;BME280;41875;55.806;38.082;2023-05-02T00:26:07;99848.94;;;4.98;61.72
55990;BME280;41875;55.806;38.082;2023-05-02T00:28:40;99862.34;;;5.06;61.43
55990;BME280;41875;55.806;38.082;2023-05-02T00:31:08;99861.75;;;5.14;60.94
55990;BME280;41875;55.806;38.082;2023-05-02T00:33:37;99864.31;;;4.91;61.78
55990;BME280;41875;55.806;38.082;2023-05-02T00:36:12;99856.78;;;4.86;61.97
55990;BME280;41875;55.806;38.082;2023-05-02T00:38:41;99855.78;;;4.76;62.11
55990;BME280;41875;55.806;38.082;2023-05-02T00:41:11;99860.69;;;4.81;62.24
55990;BME280;41875;55.806;38.082;2023-05-02T00:43:40;99861.09;;;4.99;61.61
55990;BME280;41875;55.806;38.082;2023-05-02T00:46:08;99869.69;;;4.90;61.80
55990;BME280;41875;55.806;38.082;2023-05-02T00:48:38;99865.84;;;4.94;61.96
55990;BME280;41875;55.806;38.082;2023-05-02T00:51:06;99876.13;;;4.97;62.32
55990;BME280;41875;55.806;38.082;2023-05-02T00:53:38;99881.84;;;4.91;61.91
55990;BME280;41875;55.806;38.082;2023-05-02T00:56:07;99877.22;;;4.70;62.19
55990;BME280;41875;55.806;38.082;2023-05-02T00:58:37;99882.91;;;4.64;62.69
55990;BME280;41875;55.806;38.082;2023-05-02T01:01:19;99892.75;;;4.73;62.80
55990;BME280;41875;55.806;38.082;2023-05-02T01:04:03;99896.03;;;4.64;62.62
55990;BME280;41875;55.806;38.082;2023-05-02T01:06:50;99893.47;;;4.75;62.70
55990;BME280;41875;55.806;38.082;2023-05-02T01:09:28;99894.81;;;4.56;62.90
55990;BME280;41875;55.806;38.082;2023-05-02T01:12:01;99895.38;;;4.49;63.26
55990;BME280;41875;55.806;38.082;2023-05-02T01:14:35;99911.03;;;4.62;62.76
55990;BME280;41875;55.806;38.082;2023-05-02T01:17:11;99910.59;;;4.68;62.74
55990;BME280;41875;55.806;38.082;2023-05-02T01:19:43;99910.09;;;4.63;62.51
55990;BME280;41875;55.806;38.082;2023-05-02T01:22:16;99907.47;;;4.63;62.47
55990;BME280;41875;55.806;38.082;2023-05-02T01:24:53;99923.59;;;4.69;62.69
55990;BME280;41875;55.806;38.082;2023-05-02T01:27:33;99924.41;;;4.83;61.79
55990;BME280;41875;55.806;38.082;2023-05-02T01:30:07;99925.38;;;4.45;62.37
55990;BME280;41875;55.806;38.082;2023-05-02T01:32:38;99936.31;;;4.38;62.99
55990;BME280;41875;55.806;38.082;2023-05-02T01:35:09;99932.97;;;4.36;63.55
55990;BME280;41875;55.806;38.082;2023-05-02T01:37:38;99944.28;;;4.24;64.04
55990;BME280;41875;55.806;38.082;2023-05-02T01:40:09;99946.88;;;4.50;63.21
55990;BME280;41875;55.806;38.082;2023-05-02T01:42:39;99948.31;;;4.54;62.88
55990;BME280;41875;55.806;38.082;2023-05-02T01:45:11;99947.47;;;4.66;62.71
55990;BME280;41875;55.806;38.082;2023-05-02T01:47:42;99943.91;;;4.67;62.44
55990;BME280;41875;55.806;38.082;2023-05-02T01:50:15;99946.06;;;5.22;60.07
55990;BME280;41875;55.806;38.082;2023-05-02T01:52:46;99949.31;;;5.37;59.90
55990;BME280;41875;55.806;38.082;2023-05-02T01:55:16;99960.16;;;5.32;59.37
55990;BME280;41875;55.806;38.082;2023-05-02T01:57:47;99955.91;;;4.83;60.81
55990;BME280;41875;55.806;38.082;2023-05-02T02:00:20;99964.31;;;4.99;60.09
55990;BME280;41875;55.806;38.082;2023-05-02T02:02:51;99965.22;;;5.47;58.66
55990;BME280;41875;55.806;38.082;2023-05-02T02:05:21;99962.50;;;6.07;57.23
55990;BME280;41875;55.806;38.082;2023-05-02T02:07:50;99967.97;;;5.92;57.42
55990;BME280;41875;55.806;38.082;2023-05-02T02:10:18;99966.69;;;6.21;56.08
55990;BME280;41875;55.806;38.082;2023-05-02T02:12:51;99982.53;;;6.88;55.04
55990;BME280;41875;55.806;38.082;2023-05-02T02:15:26;99985.97;;;6.99;54.39
55990;BME280;41875;55.806;38.082;2023-05-02T02:17:58;99982.56;;;7.41;52.34
55990;BME280;41875;55.806;38.082;2023-05-02T02:20:28;99985.94;;;7.11;52.66
55990;BME280;41875;55.806;38.082;2023-05-02T02:22:59;99982.13;;;7.04;53.00
55990;BME280;41875;55.806;38.082;2023-05-02T02:25:30;99986.50;;;8.42;50.43
55990;BME280;41875;55.806;38.082;2023-05-02T02:28:00;99990.00;;;9.32;47.89
55990;BME280;41875;55.806;38.082;2023-05-02T02:30:30;99999.72;;;7.68;51.10
55990;BME280;41875;55.806;38.082;2023-05-02T02:32:59;99996.41;;;6.90;53.38
55990;BME280;41875;55.806;38.082;2023-05-02T02:35:32;100000.47;;;7.59;52.27
55990;BME280;41875;55.806;38.082;2023-05-02T02:38:09;100012.72;;;7.27;52.54
55990;BME280;41875;55.806;38.082;2023-05-02T02:40:43;100008.06;;;7.73;51.23
55990;BME280;41875;55.806;38.082;2023-05-02T02:43:19;100010.34;;;7.78;51.16
55990;BME280;41875;55.806;38.082;2023-05-02T02:45:58;100007.50;;;8.84;48.55
55990;BME280;41875;55.806;38.082;2023-05-02T02:48:33;100014.00;;;8.39;49.65
55990;BME280;41875;55.806;38.082;2023-05-02T02:51:08;100026.47;;;7.85;50.87
55990;BME280;41875;55.806;38.082;2023-05-02T02:53:46;100029.53;;;7.47;51.84
55990;BME280;41875;55.806;38.082;2023-05-02T02:56:26;100032.56;;;7.64;51.47
55990;BME280;41875;55.806;38.082;2023-05-02T02:58:57;100030.03;;;8.26;49.68
55990;BME280;41875;55.806;38.082;2023-05-02T03:01:30;100035.63;;;8.33;49.89
55990;BME280;41875;55.806;38.082;2023-05-02T03:04:02;100047.47;;;8.38;49.51
55990;BME280;41875;55.806;38.082;2023-05-02T03:06:33;100042.47;;;8.66;49.03
55990;BME280;41875;55.806;38.082;2023-05-02T03:09:02;100045.38;;;9.14;47.57
55990;BME280;41875;55.806;38.082;2023-05-02T03:11:31;100022.72;;;9.31;47.24
55990;BME280;41875;55.806;38.082;2023-05-02T03:14:00;100041.81;;;9.44;46.44
55990;BME280;41875;55.806;38.082;2023-05-02T03:16:32;100056.25;;;9.99;46.18
55990;BME280;41875;55.806;38.082;2023-05-02T03:19:04;100056.44;;;10.35;44.23
55990;BME280;41875;55.806;38.082;2023-05-02T03:21:33;100057.91;;;10.10;44.85
55990;BME280;41875;55.806;38.082;2023-05-02T03:24:09;100060.19;;;8.76;47.94
55990;BME280;41875;55.806;38.082;2023-05-02T03:26:38;100063.94;;;8.83;47.24
55990;BME280;41875;55.806;38.082;2023-05-02T03:29:09;100067.97;;;7.50;50.90
55990;BME280;41875;55.806;38.082;2023-05-02T03:31:42;100072.78;;;7.99;50.54
55990;BME280;41875;55.806;38.082;2023-05-02T03:34:11;100071.66;;;8.13;49.82
55990;BME280;41875;55.806;38.082;2023-05-02T03:36:41;100075.94;;;8.35;49.61
55990;BME280;41875;55.806;38.082;2023-05-02T03:39:10;100080.56;;;8.64;50.90
55990;BME280;41875;55.806;38.082;2023-05-02T03:41:39;100073.59;;;8.42;49.07
55990;BME280;41875;55.806;38.082;2023-05-02T03:44:12;100082.75;;;8.99;48.26
55990;BME280;41875;55.806;38.082;2023-05-02T03:46:43;100089.50;;;8.73;49.05
55990;BME280;41875;55.806;38.082;2023-05-02T03:49:12;100093.63;;;8.65;48.95
55990;BME280;41875;55.806;38.082;2023-05-02T03:51:43;100088.22;;;8.67;49.03
55990;BME280;41875;55.806;38.082;2023-05-02T03:54:14;100082.84;;;8.78;48.86
55990;BME280;41875;55.806;38.082;2023-05-02T03:56:44;100098.75;;;8.98;48.32
55990;BME280;41875;55.806;38.082;2023-05-02T03:59:24;100096.91;;;9.39;47.28
55990;BME280;41875;55.806;38.082;2023-05-02T04:01:55;100096.50;;;9.54;46.63
55990;BME280;41875;55.806;38.082;2023-05-02T04:04:33;100098.84;;;10.06;45.80
55990;BME280;41875;55.806;38.082;2023-05-02T04:07:03;100097.75;;;9.99;46.05
55990;BME280;41875;55.806;38.082;2023-05-02T04:09:31;100104.84;;;10.08;45.66
55990;BME280;41875;55.806;38.082;2023-05-02T04:12:06;100107.75;;;10.15;46.10
55990;BME280;41875;55.806;38.082;2023-05-02T04:14:38;100109.13;;;10.39;45.61
55990;BME280;41875;55.806;38.082;2023-05-02T04:17:08;100110.13;;;10.28;45.48
55990;BME280;41875;55.806;38.082;2023-05-02T04:19:44;100113.50;;;10.67;44.96
55990;BME280;41875;55.806;38.082;2023-05-02T04:22:14;100110.00;;;10.00;45.05
55990;BME280;41875;55.806;38.082;2023-05-02T04:24:47;100111.94;;;10.07;45.55
55990;BME280;41875;55.806;38.082;2023-05-02T04:27:26;100113.88;;;10.15;45.27
55990;BME280;41875;55.806;38.082;2023-05-02T04:30:03;100124.19;;;10.18;46.20
55990;BME280;41875;55.806;38.082;2023-05-02T04:32:33;100117.69;;;10.80;45.36
55990;BME280;41875;55.806;38.082;2023-05-02T04:35:03;100128.16;;;11.27;42.71
55990;BME280;41875;55.806;38.082;2023-05-02T04:37:32;100129.16;;;10.98;43.50
55990;BME280;41875;55.806;38.082;2023-05-02T04:40:02;100131.88;;;10.89;44.15
55990;BME280;41875;55.806;38.082;2023-05-02T04:42:30;100138.28;;;11.14;42.69
55990;BME280;41875;55.806;38.082;2023-05-02T04:45:14;100133.88;;;10.67;43.89
55990;BME280;41875;55.806;38.082;2023-05-02T04:47:45;100143.59;;;11.14;43.02
55990;BME280;41875;55.806;38.082;2023-05-02T04:50:14;100141.03;;;11.68;41.82
55990;BME280;41875;55.806;38.082;2023-05-02T04:52:43;100135.03;;;11.66;41.68
55990;BME280;41875;55.806;38.082;2023-05-02T04:55:12;100138.59;;;11.57;41.78
55990;BME280;41875;55.806;38.082;2023-05-02T04:57:40;100152.13;;;11.18;43.35
55990;BME280;41875;55.806;38.082;2023-05-02T05:00:13;100146.00;;;11.35;42.33
55990;BME280;41875;55.806;38.082;2023-05-02T05:02:43;100140.84;;;11.80;41.11
55990;BME280;41875;55.806;38.082;2023-05-02T05:05:14;100139.81;;;11.63;41.56
55990;BME280;41875;55.806;38.082;2023-05-02T05:07:43;100141.50;;;12.18;41.64
55990;BME280;41875;55.806;38.082;2023-05-02T05:10:13;100141.38;;;12.46;39.91
55990;BME280;41875;55.806;38.082;2023-05-02T05:12:45;100144.84;;;12.20;40.84
55990;BME280;41875;55.806;38.082;2023-05-02T05:15:15;100144.41;;;12.07;40.19
55990;BME280;41875;55.806;38.082;2023-05-02T05:17:49;100140.81;;;12.16;40.32
55990;BME280;41875;55.806;38.082;2023-05-02T05:20:20;100145.66;;;12.39;39.59
55990;BME280;41875;55.806;38.082;2023-05-02T05:22:50;100145.88;;;12.01;40.83
55990;BME280;41875;55.806;38.082;2023-05-02T05:25:20;100147.00;;;12.43;39.74
55990;BME280;41875;55.806;38.082;2023-05-02T05:27:50;100140.50;;;12.63;37.50
55990;BME280;41875;55.806;38.082;2023-05-02T05:30:19;100140.19;;;12.67;37.67
55990;BME280;41875;55.806;38.082;2023-05-02T05:32:48;100155.59;;;12.37;38.53
55990;BME280;41875;55.806;38.082;2023-05-02T05:35:16;100143.47;;;12.60;37.86
55990;BME280;41875;55.806;38.082;2023-05-02T05:37:46;100144.53;;;13.02;38.30
55990;BME280;41875;55.806;38.082;2023-05-02T05:40:16;100141.00;;;12.14;37.90
55990;BME280;41875;55.806;38.082;2023-05-02T05:42:49;100142.84;;;12.67;37.34
55990;BME280;41875;55.806;38.082;2023-05-02T05:45:24;100153.72;;;12.81;37.40
55990;BME280;41875;55.806;38.082;2023-05-02T05:47:53;100138.25;;;12.77;36.22
55990;BME280;41875;55.806;38.082;2023-05-02T05:50:24;100145.22;;;12.78;35.78
55990;BME280;41875;55.806;38.082;2023-05-02T05:52:54;100145.69;;;13.43;37.15
55990;BME280;41875;55.806;38.082;2023-05-02T05:55:23;100153.44;;;13.27;34.75
55990;BME280;41875;55.806;38.082;2023-05-02T05:57:52;100150.13;;;13.34;34.93
55990;BME280;41875;55.806;38.082;2023-05-02T06:00:21;100160.88;;;13.59;34.55
55990;BME280;41875;55.806;38.082;2023-05-02T06:02:51;100145.88;;;13.49;34.06
55990;BME280;41875;55.806;38.082;2023-05-02T06:05:38;100153.41;;;12.85;34.17
55990;BME280;41875;55.806;38.082;2023-05-02T06:08:09;100151.34;;;13.05;35.38
55990;BME280;41875;55.806;38.082;2023-05-02T06:10:38;100158.44;;;13.31;34.91
55990;BME280;41875;55.806;38.082;2023-05-02T06:13:07;100154.38;;;13.10;34.85
55990;BME280;41875;55.806;38.082;2023-05-02T06:15:41;100150.44;;;12.88;33.92
55990;BME280;41875;55.806;38.082;2023-05-02T06:18:09;100159.00;;;12.73;34.42
55990;BME280;41875;55.806;38.082;2023-05-02T06:20:38;100159.72;;;13.18;33.56
55990;BME280;41875;55.806;38.082;2023-05-02T06:23:06;100149.88;;;13.53;33.35
55990;BME280;41875;55.806;38.082;2023-05-02T06:25:37;100150.06;;;13.52;31.82
55990;BME280;41875;55.806;38.082;2023-05-02T06:28:06;100158.78;;;13.95;30.25
55990;BME280;41875;55.806;38.082;2023-05-02T06:30:35;100159.13;;;12.98;32.16
55990;BME280;41875;55.806;38.082;2023-05-02T06:33:04;100169.41;;;13.36;32.06
55990;BME280;41875;55.806;38.082;2023-05-02T06:35:32;100165.28;;;14.01;35.96
55990;BME280;41875;55.806;38.082;2023-05-02T06:38:01;100151.09;;;14.33;31.80
55990;BME280;41875;55.806;38.082;2023-05-02T06:40:29;100152.94;;;13.92;31.66
55990;BME280;41875;55.806;38.082;2023-05-02T06:42:59;100157.91;;;13.70;31.89
55990;BME280;41875;55.806;38.082;2023-05-02T06:45:28;100148.59;;;12.88;31.43
55990;BME280;41875;55.806;38.082;2023-05-02T06:47:56;100158.63;;;13.37;31.07
55990;BME280;41875;55.806;38.082;2023-05-02T06:50:25;100160.22;;;12.87;32.43
55990;BME280;41875;55.806;38.082;2023-05-02T06:52:53;100156.84;;;13.11;31.82
55990;BME280;41875;55.806;38.082;2023-05-02T06:55:40;100151.72;;;13.61;30.66
55990;BME280;41875;55.806;38.082;2023-05-02T06:58:11;100153.44;;;13.95;31.99
55990;BME280;41875;55.806;38.082;2023-05-02T07:00:40;100161.06;;;13.22;31.15
55990;BME280;41875;55.806;38.082;2023-05-02T07:03:09;100156.19;;;13.44;30.60
55990;BME280;41875;55.806;38.082;2023-05-02T07:05:38;100158.56;;;13.21;31.06
55990;BME280;41875;55.806;38.082;2023-05-02T07:08:09;100154.69;;;13.50;30.53
55990;BME280;41875;55.806;38.082;2023-05-02T07:10:45;100157.50;;;13.48;31.24
55990;BME280;41875;55.806;38.082;2023-05-02T07:13:15;100159.25;;;13.23;31.32
55990;BME280;41875;55.806;38.082;2023-05-02T07:15:44;100155.94;;;13.97;30.33
55990;BME280;41875;55.806;38.082;2023-05-02T07:18:12;100151.94;;;14.09;30.63
55990;BME280;41875;55.806;38.082;2023-05-02T07:20:41;100152.25;;;14.72;29.88
55990;BME280;41875;55.806;38.082;2023-05-02T07:23:09;100155.69;;;13.57;28.90
55990;BME280;41875;55.806;38.082;2023-05-02T07:25:41;100156.41;;;13.67;29.62
55990;BME280;41875;55.806;38.082;2023-05-02T07:28:09;100159.41;;;13.72;29.45
55990;BME280;41875;55.806;38.082;2023-05-02T07:30:39;100163.22;;;12.84;31.58
55990;BME280;41875;55.806;38.082;2023-05-02T07:33:26;100154.50;;;13.08;31.32
55990;BME280;41875;55.806;38.082;2023-05-02T07:35:55;100161.06;;;13.22;31.12
55990;BME280;41875;55.806;38.082;2023-05-02T07:38:23;100156.72;;;12.34;30.92
55990;BME280;41875;55.806;38.082;2023-05-02T07:40:52;100140.75;;;13.64;29.64
55990;BME280;41875;55.806;38.082;2023-05-02T07:43:25;100157.97;;;13.35;31.02
55990;BME280;41875;55.806;38.082;2023-05-02T07:45:55;100162.50;;;13.51;30.82
55990;BME280;41875;55.806;38.082;2023-05-02T07:48:24;100149.34;;;13.41;31.53
55990;BME280;41875;55.806;38.082;2023-05-02T07:50:55;100155.09;;;12.94;30.35
55990;BME280;41875;55.806;38.082;2023-05-02T07:53:24;100154.03;;;13.48;29.91
55990;BME280;41875;55.806;38.082;2023-05-02T07:55:53;100147.59;;;14.08;29.51
55990;BME280;41875;55.806;38.082;2023-05-02T07:58:21;100153.09;;;14.48;28.79
55990;BME280;41875;55.806;38.082;2023-05-02T08:00:50;100140.78;;;14.30;28.98
55990;BME280;41875;55.806;38.082;2023-05-02T08:03:20;100150.38;;;13.49;30.16
55990;BME280;41875;55.806;38.082;2023-05-02T08:05:48;100154.09;;;13.81;29.87
55990;BME280;41875;55.806;38.082;2023-05-02T08:08:17;100150.94;;;14.35;28.42
55990;BME280;41875;55.806;38.082;2023-05-02T08:10:46;100157.94;;;14.11;29.20
55990;BME280;41875;55.806;38.082;2023-05-02T08:13:14;100164.88;;;13.20;29.84
55990;BME280;41875;55.806;38.082;2023-05-02T08:15:43;100147.13;;;14.21;29.55
55990;BME280;41875;55.806;38.082;2023-05-02T08:18:12;100152.41;;;14.54;28.56
55990;BME280;41875;55.806;38.082;2023-05-02T08:20:44;100134.28;;;13.92;28.99
55990;BME280;41875;55.806;38.082;2023-05-02T08:23:14;100137.78;;;13.67;29.12
55990;BME280;41875;55.806;38.082;2023-05-02T08:25:42;100140.31;;;14.18;28.69
55990;BME280;41875;55.806;38.082;2023-05-02T08:28:11;100136.13;;;14.24;28.82
55990;BME280;41875;55.806;38.082;2023-05-02T08:30:39;100132.44;;;13.76;28.36
55990;BME280;41875;55.806;38.082;2023-05-02T08:33:08;100134.97;;;14.18;28.17
55990;BME280;41875;55.806;38.082;2023-05-02T08:35:36;100138.56;;;15.23;27.96
55990;BME280;41875;55.806;38.082;2023-05-02T08:38:11;100137.69;;;14.91;25.95
55990;BME280;41875;55.806;38.082;2023-05-02T08:43:34;100143.56;;;14.54;27.09
55990;BME280;41875;55.806;38.082;2023-05-02T08:46:04;100145.97;;;14.15;26.73
55990;BME280;41875;55.806;38.082;2023-05-02T08:48:35;100133.91;;;15.49;25.77
55990;BME280;41875;55.806;38.082;2023-05-02T08:51:09;100136.84;;;15.94;24.77
55990;BME280;41875;55.806;38.082;2023-05-02T08:53:40;100137.03;;;14.89;25.32
55990;BME280;41875;55.806;38.082;2023-05-02T08:56:10;100122.78;;;14.16;26.60
55990;BME280;41875;55.806;38.082;2023-05-02T08:58:39;100130.59;;;14.51;25.59
55990;BME280;41875;55.806;38.082;2023-05-02T09:01:09;100126.78;;;15.41;24.63
55990;BME280;41875;55.806;38.082;2023-05-02T09:03:43;100129.38;;;15.26;24.82
55990;BME280;41875;55.806;38.082;2023-05-02T09:06:13;100116.72;;;14.80;25.04
55990;BME280;41875;55.806;38.082;2023-05-02T09:08:45;100122.94;;;15.67;25.83
55990;BME280;41875;55.806;38.082;2023-05-02T09:11:15;100133.94;;;15.72;24.85
55990;BME280;41875;55.806;38.082;2023-05-02T09:13:44;100125.28;;;15.07;25.36
55990;BME280;41875;55.806;38.082;2023-05-02T09:16:14;100128.81;;;14.99;25.57
55990;BME280;41875;55.806;38.082;2023-05-02T09:18:44;100129.56;;;14.68;26.35
55990;BME280;41875;55.806;38.082;2023-05-02T09:21:14;100125.47;;;14.41;26.70
55990;BME280;41875;55.806;38.082;2023-05-02T09:23:49;100128.50;;;14.94;25.96
55990;BME280;41875;55.806;38.082;2023-05-02T09:26:18;100124.56;;;14.73;26.12
55990;BME280;41875;55.806;38.082;2023-05-02T09:28:48;100123.47;;;15.39;24.95
55990;BME280;41875;55.806;38.082;2023-05-02T09:31:18;100121.03;;;15.52;25.10
55990;BME280;41875;55.806;38.082;2023-05-02T09:34:08;100118.44;;;14.56;24.56
55990;BME280;41875;55.806;38.082;2023-05-02T09:36:39;100114.91;;;14.64;24.68
55990;BME280;41875;55.806;38.082;2023-05-02T09:39:11;100116.44;;;15.06;23.75
55990;BME280;41875;55.806;38.082;2023-05-02T09:41:40;100112.75;;;16.17;22.96
55990;BME280;41875;55.806;38.082;2023-05-02T09:44:10;100109.97;;;15.64;24.06
55990;BME280;41875;55.806;38.082;2023-05-02T09:46:40;100098.13;;;15.58;24.16
55990;BME280;41875;55.806;38.082;2023-05-02T09:49:09;100102.16;;;15.31;24.99
55990;BME280;41875;55.806;38.082;2023-05-02T09:51:38;100098.56;;;14.75;27.25
55990;BME280;41875;55.806;38.082;2023-05-02T09:54:06;100111.56;;;15.73;24.59
55990;BME280;41875;55.806;38.082;2023-05-02T09:56:54;100103.00;;;15.54;24.81
55990;BME280;41875;55.806;38.082;2023-05-02T09:59:52;100098.84;;;14.97;24.79
55990;BME280;41875;55.806;38.082;2023-05-02T10:02:21;100097.13;;;15.04;25.19
55990;BME280;41875;55.806;38.082;2023-05-02T10:04:52;100085.53;;;15.98;24.61
55990;BME280;41875;55.806;38.082;2023-05-02T10:07:25;100082.63;;;16.83;24.23
55990;BME280;41875;55.806;38.082;2023-05-02T10:09:56;100087.25;;;17.04;24.30
55990;BME280;41875;55.806;38.082;2023-05-02T10:12:29;100085.16;;;16.55;23.06
55990;BME280;41875;55.806;38.082;2023-05-02T10:15:02;100091.28;;;17.15;23.42
55990;BME280;41875;55.806;38.082;2023-05-02T10:17:38;100077.75;;;16.42;24.31
55990;BME280;41875;55.806;38.082;2023-05-02T10:20:10;100084.25;;;16.09;24.27
55990;BME280;41875;55.806;38.082;2023-05-02T10:22:44;100077.03;;;15.48;25.14
55990;BME280;41875;55.806;38.082;2023-05-02T10:25:13;100083.16;;;15.80;24.74
55990;BME280;41875;55.806;38.082;2023-05-02T10:30:49;100076.53;;;15.68;26.11
55990;BME280;41875;55.806;38.082;2023-05-02T10:33:20;100071.28;;;15.60;23.62
55990;BME280;41875;55.806;38.082;2023-05-02T10:35:49;100076.03;;;15.49;23.62
55990;BME280;41875;55.806;38.082;2023-05-02T10:38:19;100070.06;;;15.39;24.50
55990;BME280;41875;55.806;38.082;2023-05-02T10:40:57;100080.63;;;16.02;24.14
55990;BME280;41875;55.806;38.082;2023-05-02T10:43:31;100082.97;;;15.59;24.03
55990;BME280;41875;55.806;38.082;2023-05-02T10:46:02;100073.81;;;15.76;24.75
55990;BME280;41875;55.806;38.082;2023-05-02T10:48:31;100068.63;;;16.36;23.70
55990;BME280;41875;55.806;38.082;2023-05-02T10:50:59;100069.81;;;16.49;23.44
55990;BME280;41875;55.806;38.082;2023-05-02T10:53:32;100057.63;;;16.16;24.12
55990;BME280;41875;55.806;38.082;2023-05-02T10:56:14;100061.78;;;16.34;23.60
55990;BME280;41875;55.806;38.082;2023-05-02T10:58:43;100065.03;;;17.26;23.67
55990;BME280;41875;55.806;38.082;2023-05-02T11:01:32;100059.50;;;17.27;23.23
55990;BME280;41875;55.806;38.082;2023-05-02T11:04:07;100054.44;;;17.17;23.74
55990;BME280;41875;55.806;38.082;2023-05-02T11:06:37;100063.59;;;17.66;23.10
55990;BME280;41875;55.806;38.082;2023-05-02T11:09:30;100060.19;;;17.14;23.33
55990;BME280;41875;55.806;38.082;2023-05-02T11:12:04;100053.56;;;16.20;24.51
55990;BME280;41875;55.806;38.082;2023-05-02T11:14:43;100058.28;;;16.78;23.65
55990;BME280;41875;55.806;38.082;2023-05-02T11:17:16;100046.28;;;18.12;22.74
55990;BME280;41875;55.806;38.082;2023-05-02T11:22:52;100053.22;;;16.98;23.15
55990;BME280;41875;55.806;38.082;2023-05-02T11:25:31;100047.28;;;16.88;24.87
55990;BME280;41875;55.806;38.082;2023-05-02T11:28:00;100042.78;;;15.98;24.68
55990;BME280;41875;55.806;38.082;2023-05-02T11:30:43;100036.97;;;16.10;23.23
55990;BME280;41875;55.806;38.082;2023-05-02T11:33:18;100036.63;;;16.28;24.12
55990;BME280;41875;55.806;38.082;2023-05-02T11:35:47;100035.88;;;16.49;23.85
55990;BME280;41875;55.806;38.082;2023-05-02T11:38:18;100031.09;;;16.44;24.52
55990;BME280;41875;55.806;38.082;2023-05-02T11:40:55;100037.19;;;16.68;24.55
55990;BME280;41875;55.806;38.082;2023-05-02T11:43:26;100032.94;;;16.29;24.00
55990;BME280;41875;55.806;38.082;2023-05-02T11:45:58;100026.00;;;16.35;24.25
55990;BME280;41875;55.806;38.082;2023-05-02T11:48:30;100029.22;;;17.27;23.32
55990;BME280;41875;55.806;38.082;2023-05-02T11:51:00;100024.47;;;16.92;23.55
55990;BME280;41875;55.806;38.082;2023-05-02T11:53:32;100022.75;;;16.99;23.91
55990;BME280;41875;55.806;38.082;2023-05-02T11:56:01;100022.78;;;15.71;24.99
55990;BME280;41875;55.806;38.082;2023-05-02T11:58:31;100021.88;;;15.09;24.28
55990;BME280;41875;55.806;38.082;2023-05-02T12:01:10;100019.09;;;16.55;24.08
55990;BME280;41875;55.806;38.082;2023-05-02T12:03:41;100013.22;;;17.33;23.62
55990;BME280;41875;55.806;38.082;2023-05-02T12:06:11;100021.47;;;15.90;24.81
55990;BME280;41875;55.806;38.082;2023-05-02T12:08:42;100006.81;;;16.01;25.24
55990;BME280;41875;55.806;38.082;2023-05-02T12:11:13;100020.47;;;16.06;25.12
55990;BME280;41875;55.806;38.082;2023-05-02T12:13:47;100010.22;;;17.21;23.96
55990;BME280;41875;55.806;38.082;2023-05-02T12:16:16;100013.09;;;17.42;24.00
55990;BME280;41875;55.806;38.082;2023-05-02T12:18:47;100006.84;;;17.13;24.08
55990;BME280;41875;55.806;38.082;2023-05-02T12:21:16;100008.59;;;17.05;24.29
55990;BME280;41875;55.806;38.082;2023-05-02T12:23:45;100005.28;;;16.37;24.20
55990;BME280;41875;55.806;38.082;2023-05-02T12:26:17;100004.72;;;16.56;24.27
55990;BME280;41875;55.806;38.082;2023-05-02T12:28:47;100004.91;;;17.06;23.73
55990;BME280;41875;55.806;38.082;2023-05-02T12:31:17;100005.06;;;16.68;24.28
55990;BME280;41875;55.806;38.082;2023-05-02T12:33:47;99997.41;;;17.89;23.54
55990;BME280;41875;55.806;38.082;2023-05-02T12:36:17;99986.00;;;17.80;22.98
55990;BME280;41875;55.806;38.082;2023-05-02T12:38:49;99989.13;;;18.12;22.88
55990;BME280;41875;55.806;38.082;2023-05-02T12:41:30;99995.75;;;17.59;23.94
55990;BME280;41875;55.806;38.082;2023-05-02T12:43:59;99992.31;;;17.44;23.69
55990;BME280;41875;55.806;38.082;2023-05-02T12:46:28;99994.97;;;17.22;23.18
55990;BME280;41875;55.806;38.082;2023-05-02T12:49:03;99986.50;;;16.82;23.98
55990;BME280;41875;55.806;38.082;2023-05-02T12:51:34;99982.25;;;16.72;23.93
55990;BME280;41875;55.806;38.082;2023-05-02T12:54:03;99975.06;;;17.53;23.35
55990;BME280;41875;55.806;38.082;2023-05-02T12:56:37;99980.75;;;17.00;24.15
55990;BME280;41875;55.806;38.082;2023-05-02T12:59:07;99974.84;;;16.89;24.02
55990;BME280;41875;55.806;38.082;2023-05-02T13:01:35;99983.91;;;16.88;23.29
55990;BME280;41875;55.806;38.082;2023-05-02T13:04:05;99982.88;;;16.53;23.66
55990;BME280;41875;55.806;38.082;2023-05-02T13:06:34;99978.91;;;16.34;24.36
55990;BME280;41875;55.806;38.082;2023-05-02T13:09:04;99970.47;;;16.67;23.93
55990;BME280;41875;55.806;38.082;2023-05-02T13:11:32;99977.25;;;17.43;23.71
55990;BME280;41875;55.806;38.082;2023-05-02T13:14:01;99968.09;;;17.09;24.12
55990;BME280;41875;55.806;38.082;2023-05-02T13:16:31;99979.50;;;17.67;23.13